sensor_id;sensor_type;location;lat;lon;timestamp;pressure;altitude;pressure_sealevel;temperature;humidity
30338;BME280;17143;51.888;5.408;2023-05-08T00:12:44;101876.50;;;16.17;100.00
30338;BME280;17143;51.888;5.408;2023-05-08T00:27:46;101871.84;;;16.11;100.00
30338;BME280;17143;51.888;5.408;2023-05-08T00:42:48;101879.38;;;16.04;100.00
30338;BME280;17143;51.888;5.408;2023-05-08T00:57:50;101876.88;;;15.89;100.00
30338;BME280;17143;51.888;5.408;2023-05-08T01:13:05;101873.81;;;15.80;100.00
30338;BME280;17143;51.888;5.408;2023-05-08T01:28:46;101866.75;;;15.79;100.00
30338;BME280;17143;51.888;5.408;2023-05-08T01:44:05;101872.31;;;15.85;100.00
30338;BME280;17143;51.888;5.408;2023-05-08T01:59:09;101875.91;;;15.87;100.00
30338;BME280;17143;51.888;5.408;2023-05-08T02:14:15;101881.00;;;15.84;100.00
30338;BME280;17143;51.888;5.408;2023-05-08T02:29:20;101893.84;;;15.78;100.00
30338;BME280;17143;51.888;5.408;2023-05-08T02:44:23;101901.72;;;15.78;100.00
30338;BME280;17143;51.888;5.408;2023-05-08T02:59:29;101883.88;;;15.71;100.00
30338;BME280;17143;51.888;5.408;2023-05-08T03:14:36;101884.56;;;15.67;100.00
30338;BME280;17143;51.888;5.408;2023-05-08T03:29:41;101865.38;;;15.52;100.00
30338;BME280;17143;51.888;5.408;2023-05-08T03:44:44;101871.91;;;15.44;100.00
30338;BME280;17143;51.888;5.408;2023-05-08T03:59:51;101863.06;;;15.42;100.00
30338;BME280;17143;51.888;5.408;2023-05-08T04:15:02;101878.66;;;15.39;100.00
30338;BME280;17143;51.888;5.408;2023-05-08T04:30:08;101880.66;;;15.43;100.00
30338;BME280;17143;51.888;5.408;2023-05-08T04:45:11;101893.94;;;15.62;100.00
30338;BME280;17143;51.888;5.408;2023-05-08T05:00:15;101896.47;;;15.78;100.00
30338;BME280;17143;51.888;5.408;2023-05-08T05:15:18;101916.94;;;19.73;100.00
30338;BME280;17143;51.888;5.408;2023-05-08T05:30:21;101930.66;;;18.68;100.00
30338;BME280;17143;51.888;5.408;2023-05-08T05:45:23;101936.78;;;18.67;100.00
30338;BME280;17143;51.888;5.408;2023-05-08T06:00:26;101961.69;;;18.31;100.00
30338;BME280;17143;51.888;5.408;2023-05-08T06:15:30;101949.13;;;18.25;100.00
30338;BME280;17143;51.888;5.408;2023-05-08T06:30:33;101953.28;;;18.41;100.00
30338;BME280;17143;51.888;5.408;2023-05-08T06:45:35;101954.81;;;18.14;100.00
30338;BME280;17143;51.888;5.408;2023-05-08T07:00:37;101963.94;;;18.22;100.00
30338;BME280;17143;51.888;5.408;2023-05-08T07:15:39;101971.41;;;17.91;100.00
30338;BME280;17143;51.888;5.408;2023-05-08T07:30:41;101972.28;;;18.33;100.00
30338;BME280;17143;51.888;5.408;2023-05-08T07:45:43;101955.78;;;18.59;100.00
30338;BME280;17143;51.888;5.408;2023-05-08T08:00:45;101971.00;;;19.56;100.00
30338;BME280;17143;51.888;5.408;2023-05-08T08:15:47;101967.31;;;20.55;100.00
30338;BME280;17143;51.888;5.408;2023-05-08T08:30:49;101965.31;;;20.48;100.00
30338;BME280;17143;51.888;5.408;2023-05-08T08:45:51;101952.53;;;22.16;100.00
30338;BME280;17143;51.888;5.408;2023-05-08T09:00:54;101949.28;;;21.61;99.72
30338;BME280;17143;51.888;5.408;2023-05-08T09:15:58;101960.53;;;22.18;96.20
30338;BME280;17143;51.888;5.408;2023-05-08T09:31:00;101961.69;;;21.62;97.23
30338;BME280;17143;51.888;5.408;2023-05-08T09:46:19;101967.69;;;22.20;96.95
30338;BME280;17143;51.888;5.408;2023-05-08T10:01:30;101964.50;;;21.99;94.88
30338;BME280;17143;51.888;5.408;2023-05-08T10:16:36;101963.09;;;22.13;95.18
30338;BME280;17143;51.888;5.408;2023-05-08T10:31:39;101965.22;;;21.92;95.69
30338;BME280;17143;51.888;5.408;2023-05-08T10:46:49;101960.09;;;22.00;94.96
30338;BME280;17143;51.888;5.408;2023-05-08T11:02:02;101963.38;;;22.25;92.31
30338;BME280;17143;51.888;5.408;2023-05-08T11:17:08;101947.56;;;22.66;91.87
30338;BME280;17143;51.888;5.408;2023-05-08T11:32:11;101942.59;;;22.82;91.19
30338;BME280;17143;51.888;5.408;2023-05-08T11:47:16;101918.38;;;23.52;88.66
30338;BME280;17143;51.888;5.408;2023-05-08T12:02:19;101918.34;;;24.00;85.15
30338;BME280;17143;51.888;5.408;2023-05-08T12:17:34;101902.47;;;24.63;82.83
30338;BME280;17143;51.888;5.408;2023-05-08T12:32:38;101897.78;;;25.12;78.32
30338;BME280;17143;51.888;5.408;2023-05-08T12:47:44;101887.38;;;24.64;75.26
30338;BME280;17143;51.888;5.408;2023-05-08T13:02:53;101870.19;;;24.42;79.45
30338;BME280;17143;51.888;5.408;2023-05-08T13:17:55;101869.00;;;23.70;80.83
30338;BME280;17143;51.888;5.408;2023-05-08T13:32:57;101869.41;;;23.92;82.59
30338;BME280;17143;51.888;5.408;2023-05-08T13:47:59;101853.59;;;24.03;81.55
30338;BME280;17143;51.888;5.408;2023-05-08T14:03:01;101843.53;;;24.42;78.72
30338;BME280;17143;51.888;5.408;2023-05-08T14:18:03;101844.72;;;24.64;78.14
30338;BME280;17143;51.888;5.408;2023-05-08T14:33:05;101829.72;;;24.72;76.95
30338;BME280;17143;51.888;5.408;2023-05-08T14:48:08;101819.44;;;24.32;76.41
30338;BME280;17143;51.888;5.408;2023-05-08T15:03:10;101827.25;;;23.64;79.31
30338;BME280;17143;51.888;5.408;2023-05-08T15:18:12;101823.31;;;23.42;81.14
30338;BME280;17143;51.888;5.408;2023-05-08T15:33:14;101816.94;;;23.34;81.64
30338;BME280;17143;51.888;5.408;2023-05-08T15:48:16;101816.59;;;23.16;82.38
30338;BME280;17143;51.888;5.408;2023-05-08T16:03:18;101807.53;;;23.05;83.81
30338;BME280;17143;51.888;5.408;2023-05-08T16:18:20;101821.41;;;22.90;84.39
30338;BME280;17143;51.888;5.408;2023-05-08T16:33:22;101811.31;;;22.71;84.61
30338;BME280;17143;51.888;5.408;2023-05-08T16:48:24;101802.13;;;22.59;85.96
30338;BME280;17143;51.888;5.408;2023-05-08T17:03:26;101775.16;;;22.81;86.09
30338;BME280;17143;51.888;5.408;2023-05-08T17:18:28;101785.47;;;22.24;88.24
30338;BME280;17143;51.888;5.408;2023-05-08T17:33:30;101787.16;;;21.83;89.44
30338;BME280;17143;51.888;5.408;2023-05-08T17:48:32;101808.97;;;21.36;90.93
30338;BME280;17143;51.888;5.408;2023-05-08T18:03:35;101815.16;;;21.05;91.08
30338;BME280;17143;51.888;5.408;2023-05-08T18:18:37;101812.00;;;20.87;91.69
30338;BME280;17143;51.888;5.408;2023-05-08T18:33:39;101805.78;;;20.55;93.23
30338;BME280;17143;51.888;5.408;2023-05-08T18:48:42;101809.31;;;20.26;93.23
30338;BME280;17143;51.888;5.408;2023-05-08T19:03:44;101784.47;;;19.94;94.68
30338;BME280;17143;51.888;5.408;2023-05-08T19:18:46;101784.94;;;19.81;94.71
30338;BME280;17143;51.888;5.408;2023-05-08T19:33:48;101776.75;;;19.45;95.69
30338;BME280;17143;51.888;5.408;2023-05-08T19:48:50;101784.88;;;19.26;96.97
30338;BME280;17143;51.888;5.408;2023-05-08T20:03:52;101811.00;;;18.93;99.05
30338;BME280;17143;51.888;5.408;2023-05-08T20:18:54;101815.59;;;18.51;100.00
30338;BME280;17143;51.888;5.408;2023-05-08T20:33:56;101823.81;;;18.37;100.00
30338;BME280;17143;51.888;5.408;2023-05-08T20:48:59;101827.38;;;18.37;100.00
30338;BME280;17143;51.888;5.408;2023-05-08T21:04:00;101803.50;;;18.34;100.00
30338;BME280;17143;51.888;5.408;2023-05-08T21:19:03;101788.16;;;18.24;100.00
30338;BME280;17143;51.888;5.408;2023-05-08T21:34:05;101776.44;;;18.16;100.00
30338;BME280;17143;51.888;5.408;2023-05-08T21:49:07;101764.03;;;18.13;100.00
30338;BME280;17143;51.888;5.408;2023-05-08T22:04:09;101742.03;;;17.91;100.00
30338;BME280;17143;51.888;5.408;2023-05-08T22:19:11;101732.31;;;17.90;100.00
30338;BME280;17143;51.888;5.408;2023-05-08T22:34:13;101709.44;;;17.89;100.00
30338;BME280;17143;51.888;5.408;2023-05-08T22:49:15;101677.31;;;17.77;100.00
30338;BME280;17143;51.888;5.408;2023-05-08T23:04:17;101664.50;;;17.63;100.00
30338;BME280;17143;51.888;5.408;2023-05-08T23:19:19;101648.34;;;17.54;100.00
30338;BME280;17143;51.888;5.408;2023-05-08T23:34:21;101616.00;;;17.36;100.00
30338;BME280;17143;51.888;5.408;2023-05-08T23:49:23;101592.00;;;17.29;100.00
